Time;durP1;ratioP1;P1;durP2;ratioP2;P2;SDS_P1;SDS_P2;PMS_P1;PMS_P2;Temp;Humidity;BMP_temperature;BMP_pressure;BME280_temperature;BME280_humidity;BME280_pressure;Samples;Min_cycle;Max_cycle;Signal;HPM_P1;HPM_P2
2022/07/28 00:00:47;;;;;;;3.20;2.50;;;;;;;17.90;100.00;99108.98;105251;1271;62200;-71
2022/07/28 00:03:13;;;;;;;5.20;2.60;;;;;;;17.87;100.00;99107.85;105259;1269;62106;-71
2022/07/28 00:05:40;;;;;;;4.50;2.50;;;;;;;17.79;100.00;99109.13;105274;1271;62157;-71
2022/07/28 00:08:06;;;;;;;5.20;3.10;;;;;;;17.71;100.00;99110.81;105258;1269;62164;-70
2022/07/28 00:10:32;;;;;;;5.70;2.40;;;;;;;17.64;100.00;99110.35;105221;1269;62199;-70
2022/07/28 00:12:59;;;;;;;5.20;3.00;;;;;;;17.57;100.00;99112.45;105281;1269;62184;-71
2022/07/28 00:15:26;;;;;;;6.00;2.70;;;;;;;17.49;100.00;99114.46;105329;1271;62186;-73
2022/07/28 00:17:51;;;;;;;7.30;3.10;;;;;;;17.42;100.00;99115.65;105371;1271;62081;-72
2022/07/28 00:20:17;;;;;;;3.80;2.80;;;;;;;17.34;100.00;99110.15;105603;1271;62267;-74
2022/07/28 00:22:44;;;;;;;4.60;2.50;;;;;;;17.23;100.00;99107.44;105456;1271;62128;-74
2022/07/28 00:25:10;;;;;;;4.80;2.50;;;;;;;17.11;100.00;99106.64;105658;1271;62145;-71
2022/07/28 00:27:37;;;;;;;5.30;2.90;;;;;;;17.03;100.00;99105.48;105569;1271;62053;-73
2022/07/28 00:30:08;;;;;;;6.90;2.60;;;;;;;16.95;100.00;99103.33;105460;1268;62297;-71
2022/07/28 00:32:35;;;;;;;5.20;3.60;;;;;;;16.84;100.00;99102.36;105276;1269;73400;-73
2022/07/28 00:35:01;;;;;;;6.80;3.50;;;;;;;16.71;100.00;99101.17;105234;1270;62176;-72
2022/07/28 00:37:28;;;;;;;4.90;3.20;;;;;;;16.64;100.00;99102.71;105322;1271;62068;-71
2022/07/28 00:39:53;;;;;;;5.10;3.30;;;;;;;16.56;100.00;99110.95;105320;1271;62093;-72
2022/07/28 00:42:20;;;;;;;9.60;3.70;;;;;;;16.49;100.00;99113.38;104982;1271;62502;-70
2022/07/28 00:44:47;;;;;;;5.70;3.70;;;;;;;16.40;100.00;99115.73;105137;1268;62068;-70
2022/07/28 00:47:14;;;;;;;5.30;3.70;;;;;;;16.36;100.00;99121.89;105021;1271;62167;-71
2022/07/28 00:49:40;;;;;;;6.80;4.00;;;;;;;16.34;100.00;99117.98;105280;1271;62167;-71
2022/07/28 00:52:08;;;;;;;7.10;3.90;;;;;;;16.35;100.00;99114.48;105094;1271;62476;-70
2022/07/28 00:54:35;;;;;;;6.40;3.60;;;;;;;16.39;100.00;99110.84;105271;1269;70183;-71
2022/07/28 00:57:01;;;;;;;6.90;3.30;;;;;;;16.43;100.00;99108.02;105358;1271;72550;-71
2022/07/28 00:59:28;;;;;;;8.00;3.20;;;;;;;16.44;100.00;99110.93;105282;1271;62132;-71
2022/07/28 01:01:54;;;;;;;4.60;3.30;;;;;;;16.46;100.00;99108.59;105255;1270;62069;-71
2022/07/28 01:04:22;;;;;;;6.50;3.30;;;;;;;16.48;100.00;99106.86;105264;1271;62222;-71
2022/07/28 01:07:00;;;;;;;5.10;3.30;;;;;;;16.48;100.00;99104.71;105247;1271;70740;-71
2022/07/28 01:09:44;;;;;;;5.70;2.70;;;;;;;16.47;100.00;99101.86;105251;1271;71789;-70
2022/07/28 01:12:25;;;;;;;6.70;3.00;;;;;;;16.49;100.00;99099.99;105236;1271;62015;-71
2022/07/28 01:15:18;;;;;;;4.30;2.80;;;;;;;16.48;100.00;99099.84;105281;1271;62142;-70
2022/07/28 01:17:51;;;;;;;4.80;2.70;;;;;;;16.50;100.00;99098.94;105220;1271;76650;-71
2022/07/28 01:20:27;;;;;;;4.30;2.90;;;;;;;16.54;100.00;99098.75;105259;1271;69276;-71
2022/07/28 01:23:18;;;;;;;6.30;3.50;;;;;;;16.59;100.00;99090.27;104981;1271;73343;-71
2022/07/28 01:26:07;;;;;;;5.80;2.90;;;;;;;16.59;100.00;99083.02;105041;1271;62175;-71
2022/07/28 01:28:51;;;;;;;5.80;3.20;;;;;;;16.56;100.00;99084.78;104850;1277;62232;-70
2022/07/28 01:31:23;;;;;;;4.40;3.20;;;;;;;16.55;100.00;99088.98;104822;1277;76263;-70
2022/07/28 01:33:57;;;;;;;5.00;2.80;;;;;;;16.53;100.00;99097.20;104814;1277;69698;-71
2022/07/28 01:36:35;;;;;;;5.50;2.70;;;;;;;16.51;100.00;99096.88;104800;1277;74550;-70
2022/07/28 01:39:02;;;;;;;5.10;2.70;;;;;;;16.51;100.00;99095.98;104805;1277;62171;-70
2022/07/28 01:41:31;;;;;;;7.70;3.20;;;;;;;16.50;100.00;99101.27;104850;1277;62084;-70
2022/07/28 01:44:05;;;;;;;6.40;3.30;;;;;;;16.52;100.00;99100.59;104859;1276;77009;-71
2022/07/28 01:46:34;;;;;;;4.90;3.10;;;;;;;16.50;100.00;99097.55;104850;1277;69821;-72
2022/07/28 01:49:01;;;;;;;7.40;3.30;;;;;;;16.45;100.00;99100.96;104724;1277;73279;-71
2022/07/28 01:51:30;;;;;;;5.70;2.90;;;;;;;16.39;100.00;99095.94;104699;1277;62254;-70
2022/07/28 01:53:58;;;;;;;5.70;2.60;;;;;;;16.35;100.00;99098.98;104924;1277;62416;-71
2022/07/28 01:56:27;;;;;;;4.30;2.70;;;;;;;16.37;100.00;99104.55;104980;1277;76697;-70
2022/07/28 01:58:56;;;;;;;6.30;2.80;;;;;;;16.40;100.00;99107.52;104989;1277;70390;-70
2022/07/28 02:01:25;;;;;;;6.50;3.20;;;;;;;16.46;100.00;99115.60;104553;1278;73584;-72
2022/07/28 02:03:53;;;;;;;7.00;3.50;;;;;;;16.50;100.00;99118.63;104645;1277;62774;-71
2022/07/28 02:06:20;;;;;;;6.70;3.30;;;;;;;16.51;100.00;99118.17;104968;1271;62141;-71
2022/07/28 02:08:49;;;;;;;7.00;3.40;;;;;;;16.50;100.00;99117.23;105241;1271;77085;-72
2022/07/28 02:14:01;;;;;;;6.40;3.40;;;;;;;16.48;100.00;99118.48;105263;1271;73285;-71
2022/07/28 02:16:31;;;;;;;7.40;3.00;;;;;;;16.49;100.00;99116.84;105304;1271;62088;-71
2022/07/28 02:18:59;;;;;;;5.60;3.10;;;;;;;16.51;100.00;99116.63;105321;1271;62072;-70
2022/07/28 02:21:28;;;;;;;4.40;2.60;;;;;;;16.55;100.00;99121.77;105235;1271;78222;-71
2022/07/28 02:23:57;;;;;;;5.80;3.60;;;;;;;16.60;100.00;99124.20;105257;1269;70184;-71
2022/07/28 02:26:30;;;;;;;5.80;3.70;;;;;;;16.62;100.00;99125.14;105322;1269;73795;-71
2022/07/28 02:29:00;;;;;;;6.90;3.70;;;;;;;16.65;100.00;99128.12;105174;1271;62168;-70
2022/07/28 02:31:30;;;;;;;7.60;4.10;;;;;;;16.65;100.00;99130.39;104923;1271;62095;-70
2022/07/28 02:34:04;;;;;;;6.80;4.20;;;;;;;16.65;100.00;99131.43;104939;1271;76908;-71
2022/07/28 02:36:44;;;;;;;5.90;3.30;;;;;;;16.63;100.00;99132.02;105042;1270;70187;-71
2022/07/28 02:39:17;;;;;;;;;;;;;;;16.62;100.00;99139.23;105238;1271;71289;-71
2022/07/28 02:41:47;;;;;;;6.40;3.50;;;;;;;16.67;100.00;99141.16;105265;1269;62505;-71
2022/07/28 02:44:17;;;;;;;6.50;3.30;;;;;;;16.68;100.00;99143.23;105393;1271;62085;-71
2022/07/28 02:46:47;;;;;;;4.80;3.20;;;;;;;16.70;100.00;99142.69;105272;1270;76091;-70
2022/07/28 02:49:27;;;;;;;6.80;3.70;;;;;;;16.70;100.00;99144.84;105207;1269;69608;-71
2022/07/28 02:51:55;;;;;;;4.40;3.10;;;;;;;16.69;100.00;99147.80;104951;1271;73154;-71
2022/07/28 02:54:22;;;;;;;5.60;3.20;;;;;;;16.67;100.00;99149.45;105251;1271;62215;-70
2022/07/28 02:56:50;;;;;;;6.70;3.60;;;;;;;16.66;100.00;99148.92;105255;1271;62206;-70
2022/07/28 02:59:19;;;;;;;6.50;3.60;;;;;;;16.67;100.00;99150.87;105344;1271;77232;-70
2022/07/28 03:01:47;;;;;;;7.40;3.40;;;;;;;16.73;100.00;99149.80;105282;1269;69416;-70
2022/07/28 03:04:14;;;;;;;6.80;3.60;;;;;;;16.81;100.00;99152.19;105332;1271;74579;-71
2022/07/28 03:06:41;;;;;;;5.10;3.10;;;;;;;16.86;100.00;99155.61;105279;1271;62407;-70
2022/07/28 03:09:08;;;;;;;8.60;3.40;;;;;;;16.87;100.00;99158.63;105217;1269;62183;-70
2022/07/28 03:11:34;;;;;;;6.80;3.80;;;;;;;16.88;100.00;99166.03;105228;1269;76171;-70
2022/07/28 03:14:00;;;;;;;4.90;3.80;;;;;;;16.86;100.00;99166.79;105265;1271;62116;-72
2022/07/28 03:16:26;;;;;;;5.00;3.30;;;;;;;16.83;100.00;99169.16;105274;1271;62120;-72
2022/07/28 03:18:52;;;;;;;7.90;4.50;;;;;;;16.80;100.00;99167.63;104976;1271;62192;-72
2022/07/28 03:21:18;;;;;;;8.50;2.50;;;;;;;16.80;100.00;99172.11;105279;1271;62167;-72
2022/07/28 03:23:49;;;;;;;4.20;3.20;;;;;;;16.81;100.00;99176.38;105252;1268;62071;-71
2022/07/28 03:26:22;;;;;;;7.40;3.50;;;;;;;16.81;100.00;99177.25;105407;1271;69221;-71
2022/07/28 03:28:51;;;;;;;7.00;3.30;;;;;;;16.83;100.00;99175.85;105277;1271;74890;-71
2022/07/28 03:31:19;;;;;;;5.10;3.10;;;;;;;16.83;100.00;99174.04;105364;1270;62199;-70
2022/07/28 03:33:46;;;;;;;6.70;3.70;;;;;;;16.85;100.00;99168.79;105020;1271;62022;-70
2022/07/28 03:36:17;;;;;;;9.20;3.60;;;;;;;16.86;100.00;99167.52;105288;1271;76967;-71
2022/07/28 03:38:49;;;;;;;4.70;3.10;;;;;;;16.81;100.00;99169.42;105251;1271;69872;-71
2022/07/28 03:41:17;;;;;;;7.20;2.80;;;;;;;16.83;100.00;99169.55;105242;1271;72932;-71
2022/07/28 03:43:43;;;;;;;4.30;3.20;;;;;;;16.90;100.00;99170.67;105127;1272;62336;-71
2022/07/28 03:46:11;;;;;;;5.80;2.80;;;;;;;16.94;100.00;99173.58;105256;1271;62092;-70
2022/07/28 03:48:37;;;;;;;5.90;3.60;;;;;;;16.98;100.00;99172.90;105319;1271;77183;-70
2022/07/28 03:51:03;;;;;;;7.80;3.70;;;;;;;17.01;100.00;99170.61;105243;1271;62128;-70
2022/07/28 03:53:30;;;;;;;6.00;3.80;;;;;;;17.03;100.00;99176.13;105247;1271;62197;-69
2022/07/28 03:55:56;;;;;;;5.60;3.60;;;;;;;17.03;100.00;99179.23;105255;1269;62036;-70
2022/07/28 03:58:26;;;;;;;7.70;3.80;;;;;;;16.97;100.00;99183.20;105229;1271;62069;-70
2022/07/28 04:00:53;;;;;;;8.80;4.10;;;;;;;16.92;100.00;99187.94;105216;1271;75987;-70
2022/07/28 04:03:19;;;;;;;6.70;3.00;;;;;;;16.87;100.00;99186.56;105211;1271;70679;-71
2022/07/28 04:05:46;;;;;;;4.80;2.90;;;;;;;16.87;100.00;99186.59;105235;1271;72656;-71
2022/07/28 04:08:13;;;;;;;6.90;3.50;;;;;;;16.88;100.00;99186.84;105258;1271;62074;-70
2022/07/28 04:10:39;;;;;;;4.80;4.10;;;;;;;16.92;100.00;99185.95;105037;1272;62521;-70
2022/07/28 04:13:04;;;;;;;11.60;5.30;;;;;;;16.97;100.00;99186.20;105215;1271;62581;-70
2022/07/28 04:15:31;;;;;;;10.30;5.10;;;;;;;17.01;100.00;99184.64;105250;1271;62022;-69
2022/07/28 04:17:58;;;;;;;11.50;5.70;;;;;;;17.04;100.00;99182.58;104925;1271;62171;-70
2022/07/28 04:20:26;;;;;;;9.10;4.80;;;;;;;17.09;100.00;99181.02;104919;1271;62732;-71
2022/07/28 04:22:54;;;;;;;8.40;4.70;;;;;;;17.16;100.00;99185.05;104942;1271;62072;-70
2022/07/28 04:25:23;;;;;;;7.40;4.70;;;;;;;17.20;100.00;99187.21;105193;1271;75986;-70
2022/07/28 04:27:49;;;;;;;9.70;4.90;;;;;;;17.21;100.00;99181.86;105270;1271;70499;-70
2022/07/28 04:30:20;;;;;;;7.90;5.50;;;;;;;17.26;100.00;99185.78;105161;1271;73794;-71
2022/07/28 04:32:48;;;;;;;6.90;5.70;;;;;;;17.31;100.00;99187.94;105082;1271;62076;-72
2022/07/28 04:35:16;;;;;;;10.90;5.20;;;;;;;17.37;100.00;99182.02;105144;1271;62183;-72
2022/07/28 04:37:44;;;;;;;7.90;4.60;;;;;;;17.40;100.00;99178.89;105094;1271;76168;-71
2022/07/28 04:40:11;;;;;;;9.80;5.20;;;;;;;17.49;100.00;99179.32;105245;1271;69311;-72
2022/07/28 04:42:39;;;;;;;10.00;4.70;;;;;;;17.67;100.00;99178.60;105024;1271;73172;-72
2022/07/28 04:45:10;;;;;;;8.90;4.70;;;;;;;17.68;100.00;99179.36;105253;1271;62082;-71
2022/07/28 04:47:36;;;;;;;8.70;4.80;;;;;;;17.74;100.00;99180.88;105084;1271;62136;-71
2022/07/28 04:50:03;;;;;;;7.90;4.20;;;;;;;17.82;100.00;99184.14;105215;1271;62187;-71
2022/07/28 04:52:30;;;;;;;6.80;3.70;;;;;;;17.94;100.00;99186.05;105238;1271;70285;-71
2022/07/28 04:54:56;;;;;;;5.50;3.40;;;;;;;18.02;100.00;99187.00;105254;1269;62317;-70
2022/07/28 04:57:22;;;;;;;10.80;3.90;;;;;;;18.06;100.00;99186.23;105212;1270;62541;-71
2022/07/28 04:59:48;;;;;;;6.50;4.20;;;;;;;18.14;100.00;99184.95;105068;1274;62218;-72
2022/07/28 05:02:13;;;;;;;7.30;4.70;;;;;;;18.25;100.00;99184.85;105039;1272;62409;-73
2022/07/28 05:04:39;;;;;;;5.40;4.10;;;;;;;18.42;100.00;99189.64;105218;1271;62633;-71
2022/07/28 05:07:06;;;;;;;6.30;4.30;;;;;;;18.52;100.00;99187.98;105217;1271;62121;-71
2022/07/28 05:09:32;;;;;;;7.60;4.10;;;;;;;18.76;100.00;99190.27;105262;1271;62098;-72
2022/07/28 05:11:57;;;;;;;7.30;4.00;;;;;;;19.11;100.00;99193.38;105434;1271;74966;-71
2022/07/28 05:14:24;;;;;;;9.30;4.60;;;;;;;19.09;100.00;99197.00;105609;1271;62154;-71
2022/07/28 05:16:50;;;;;;;5.40;4.20;;;;;;;19.14;100.00;99201.85;105660;1271;62167;-72
2022/07/28 05:19:16;;;;;;;7.80;4.80;;;;;;;19.18;100.00;99202.00;105193;1271;62081;-71
2022/07/28 05:21:42;;;;;;;7.30;4.40;;;;;;;19.21;100.00;99204.26;105204;1269;62120;-71
2022/07/28 05:24:09;;;;;;;7.70;4.80;;;;;;;19.27;100.00;99205.30;105241;1271;62162;-71
2022/07/28 05:26:35;;;;;;;6.90;4.40;;;;;;;19.37;100.00;99211.86;105238;1271;62159;-71
2022/07/28 05:29:01;;;;;;;10.60;4.60;;;;;;;19.43;100.00;99212.35;105243;1271;62264;-72
2022/07/28 05:31:27;;;;;;;6.00;4.50;;;;;;;19.49;100.00;99209.94;105233;1271;62234;-71
2022/07/28 05:33:53;;;;;;;10.10;4.70;;;;;;;19.49;100.00;99208.77;105250;1271;62183;-71
2022/07/28 05:36:19;;;;;;;8.90;3.90;;;;;;;19.51;100.00;99214.42;105267;1271;62091;-70
2022/07/28 05:38:45;;;;;;;6.80;4.00;;;;;;;19.54;100.00;99215.02;105236;1271;73557;-71
2022/07/28 05:41:11;;;;;;;6.20;3.70;;;;;;;19.60;100.00;99212.05;105187;1269;62650;-70
2022/07/28 05:43:38;;;;;;;6.40;3.70;;;;;;;19.70;100.00;99216.63;105177;1271;62145;-70
2022/07/28 05:46:04;;;;;;;6.80;3.50;;;;;;;19.76;100.00;99211.04;105298;1271;62181;-70
2022/07/28 05:48:30;;;;;;;8.10;4.30;;;;;;;19.73;100.00;99214.53;105259;1271;62042;-70
2022/07/28 05:50:57;;;;;;;6.50;3.70;;;;;;;19.72;100.00;99215.48;105223;1271;62104;-71
2022/07/28 05:53:24;;;;;;;6.30;3.60;;;;;;;19.71;100.00;99219.58;105218;1271;62182;-71
2022/07/28 05:55:51;;;;;;;5.30;3.10;;;;;;;19.67;100.00;99222.54;105244;1271;62126;-72
2022/07/28 05:58:22;;;;;;;4.50;2.80;;;;;;;19.52;100.00;99226.74;105224;1272;62056;-71
2022/07/28 06:00:49;;;;;;;6.40;2.80;;;;;;;19.32;100.00;99231.06;105281;1269;70408;-72
2022/07/28 06:03:15;;;;;;;5.60;2.80;;;;;;;19.20;100.00;99231.77;105209;1271;73167;-73
2022/07/28 06:05:41;;;;;;;6.90;3.00;;;;;;;19.11;100.00;99234.58;105261;1271;62171;-71
2022/07/28 06:08:07;;;;;;;4.60;2.80;;;;;;;19.06;100.00;99235.58;105290;1271;62040;-71
2022/07/28 06:13:18;;;;;;;4.00;3.10;;;;;;;19.32;100.00;99241.86;105258;1272;68270;-72
2022/07/28 06:15:47;;;;;;;4.30;2.70;;;;;;;19.42;100.00;99243.82;105236;1272;62492;-73
2022/07/28 06:18:14;;;;;;;2.80;2.40;;;;;;;19.91;100.00;99241.66;105300;1271;62110;-73
2022/07/28 06:20:41;;;;;;;4.20;2.90;;;;;;;20.74;100.00;99245.98;105275;1271;62915;-71
2022/07/28 06:23:07;;;;;;;5.30;2.80;;;;;;;21.34;100.00;99243.61;105253;1271;62231;-73
2022/07/28 06:25:33;;;;;;;3.50;2.30;;;;;;;21.98;100.00;99240.30;104974;1274;62216;-71
2022/07/28 06:28:03;;;;;;;5.30;2.70;;;;;;;22.47;100.00;99245.11;105268;1271;62154;-72
2022/07/28 06:30:30;;;;;;;4.10;2.60;;;;;;;22.85;99.17;99242.63;105371;1271;62183;-70
2022/07/28 06:32:56;;;;;;;3.80;2.40;;;;;;;22.95;98.67;99240.92;105249;1271;62312;-71
2022/07/28 06:35:23;;;;;;;6.90;3.00;;;;;;;23.19;98.77;99239.27;105280;1272;77124;-70
2022/07/28 06:37:50;;;;;;;4.70;2.70;;;;;;;23.57;98.84;99236.23;105318;1271;63033;-72
2022/07/28 06:40:18;;;;;;;8.80;3.40;;;;;;;23.85;97.24;99236.58;105090;1271;73669;-70
2022/07/28 06:42:45;;;;;;;6.30;3.70;;;;;;;24.04;96.23;99237.23;105377;1271;62197;-71
2022/07/28 06:45:13;;;;;;;7.20;4.20;;;;;;;24.11;93.00;99235.38;105273;1271;61582;-72
2022/07/28 06:47:39;;;;;;;9.50;3.70;;;;;;;23.91;93.73;99237.06;105285;1271;77115;-72
2022/07/28 06:50:08;;;;;;;4.90;2.90;;;;;;;24.01;92.93;99233.50;105276;1271;62132;-72
2022/07/28 06:52:35;;;;;;;6.00;3.70;;;;;;;24.14;93.53;99226.45;105341;1271;73423;-71
2022/07/28 06:55:03;;;;;;;5.90;3.20;;;;;;;24.43;91.81;99227.94;105572;1271;62045;-72
2022/07/28 06:57:32;;;;;;;6.50;3.60;;;;;;;24.63;90.92;99230.19;105322;1271;62035;-71
2022/07/28 07:00:01;;;;;;;7.20;3.10;;;;;;;24.81;89.82;99226.95;104975;1272;75732;-71
2022/07/28 07:02:27;;;;;;;;;;;;;;;24.96;89.82;99227.91;105333;1271;69320;-72
2022/07/28 07:04:53;;;;;;;4.60;2.60;;;;;;;25.08;90.46;99226.17;105283;1271;62248;-73
2022/07/28 07:07:21;;;;;;;7.10;2.30;;;;;;;25.24;89.98;99226.02;105016;1271;62145;-72
2022/07/28 07:09:47;;;;;;;3.80;1.90;;;;;;;25.44;88.41;99229.29;105260;1272;62238;-71
2022/07/28 07:12:13;;;;;;;11.30;3.00;;;;;;;25.41;86.45;99223.64;105124;1271;62191;-72
2022/07/28 07:14:39;;;;;;;4.40;2.90;;;;;;;25.27;86.15;99226.48;105300;1271;62192;-70
2022/07/28 07:17:05;;;;;;;8.20;2.90;;;;;;;25.23;87.00;99225.09;105279;1271;62104;-72
2022/07/28 07:19:31;;;;;;;5.10;2.80;;;;;;;25.28;87.03;99225.66;105298;1269;62065;-73
2022/07/28 07:21:57;;;;;;;5.60;2.70;;;;;;;25.21;85.79;99222.68;105307;1271;62268;-71
2022/07/28 07:24:23;;;;;;;5.80;2.90;;;;;;;24.82;84.24;99223.15;105317;1271;62161;-71
2022/07/28 07:26:49;;;;;;;4.60;2.20;;;;;;;24.23;84.87;99220.90;105285;1271;62068;-72
2022/07/28 07:29:15;;;;;;;4.70;2.90;;;;;;;23.93;85.20;99223.48;105234;1271;62176;-72
2022/07/28 07:31:41;;;;;;;4.00;2.00;;;;;;;23.64;85.04;99223.55;105226;1270;61988;-71
2022/07/28 07:34:07;;;;;;;3.20;1.70;;;;;;;23.43;84.74;99220.88;105228;1271;62248;-72
2022/07/28 07:36:33;;;;;;;3.00;1.60;;;;;;;23.49;85.79;99219.64;105264;1271;62629;-71
2022/07/28 07:39:00;;;;;;;4.70;1.90;;;;;;;23.50;84.05;99216.34;105268;1271;62093;-71
2022/07/28 07:41:26;;;;;;;5.00;1.80;;;;;;;23.41;83.92;99218.81;105210;1271;62172;-71
2022/07/28 07:43:51;;;;;;;8.00;1.90;;;;;;;23.35;83.89;99216.25;104944;1274;62222;-71
2022/07/28 07:46:18;;;;;;;7.60;1.70;;;;;;;23.28;84.05;99215.34;104982;1271;62150;-72
2022/07/28 07:48:44;;;;;;;2.10;1.40;;;;;;;23.23;83.83;99216.33;105260;1271;62187;-71
2022/07/28 07:51:09;;;;;;;4.10;1.70;;;;;;;23.25;84.09;99224.31;105065;1272;62290;-70
2022/07/28 07:53:36;;;;;;;4.80;2.30;;;;;;;23.15;83.02;99220.20;104810;1271;62422;-70
2022/07/28 07:56:02;;;;;;;4.00;1.50;;;;;;;23.09;83.86;99219.57;105062;1271;62158;-72
2022/07/28 07:58:28;;;;;;;4.60;1.70;;;;;;;23.22;84.84;99219.22;105266;1271;62487;-71
2022/07/28 08:00:55;;;;;;;5.00;2.00;;;;;;;23.33;83.26;99222.77;105259;1271;62190;-71
2022/07/28 08:03:21;;;;;;;2.10;1.30;;;;;;;23.33;82.71;99223.34;105219;1271;62062;-71
2022/07/28 08:05:48;;;;;;;3.20;1.60;;;;;;;23.30;82.61;99226.42;105230;1271;62151;-71
2022/07/28 08:08:15;;;;;;;4.40;1.70;;;;;;;23.37;82.61;99225.18;105181;1271;62276;-72
2022/07/28 08:10:41;;;;;;;6.20;1.60;;;;;;;23.34;81.27;99226.91;105224;1268;62274;-72
2022/07/28 08:13:07;;;;;;;5.80;2.20;;;;;;;23.26;82.04;99231.38;104949;1271;61933;-71
2022/07/28 08:15:33;;;;;;;4.20;1.40;;;;;;;23.28;81.78;99229.52;105219;1271;62126;-72
2022/07/28 08:18:01;;;;;;;4.10;1.50;;;;;;;23.29;81.60;99228.66;105243;1271;62193;-71
2022/07/28 08:20:27;;;;;;;5.30;1.40;;;;;;;23.26;81.51;99233.38;105341;1271;62632;-73
2022/07/28 08:22:55;;;;;;;4.10;1.30;;;;;;;23.34;82.51;99230.27;105270;1271;62197;-70
2022/07/28 08:25:23;;;;;;;3.90;1.60;;;;;;;23.40;81.95;99225.55;105388;1271;73901;-70
2022/07/28 08:27:49;;;;;;;3.40;1.30;;;;;;;23.32;82.05;99221.61;105354;1270;62206;-71
2022/07/28 08:30:19;;;;;;;3.00;1.40;;;;;;;23.35;82.00;99223.09;105246;1271;62115;-71
2022/07/28 08:32:46;;;;;;;3.80;1.90;;;;;;;23.38;81.54;99221.07;105250;1268;74490;-71
2022/07/28 08:35:13;;;;;;;4.90;1.80;;;;;;;23.20;80.78;99220.66;105313;1270;69206;-72
2022/07/28 08:37:39;;;;;;;2.60;1.40;;;;;;;22.92;81.17;99220.02;105362;1269;74250;-72
2022/07/28 08:40:13;;;;;;;6.00;1.90;;;;;;;22.77;81.64;99223.20;105245;1271;62482;-72
2022/07/28 08:43:11;;;;;;;4.90;2.00;;;;;;;22.73;82.33;99221.10;105280;1271;62079;-73
2022/07/28 08:45:40;;;;;;;6.70;5.70;;;;;;;22.81;82.81;99222.27;105270;1271;76431;-71
2022/07/28 08:48:09;;;;;;;5.20;2.90;;;;;;;22.95;83.19;99221.92;105304;1271;70032;-71
2022/07/28 08:50:37;;;;;;;3.60;1.70;;;;;;;23.05;82.34;99222.61;105283;1271;73436;-70
2022/07/28 08:53:05;;;;;;;3.00;1.60;;;;;;;23.07;82.30;99216.89;105326;1271;62084;-71
2022/07/28 08:55:33;;;;;;;3.10;1.50;;;;;;;23.21;83.03;99216.91;105268;1271;62065;-72
2022/07/28 08:57:59;;;;;;;4.60;2.70;;;;;;;23.33;83.45;99213.89;105255;1271;77079;-71
2022/07/28 09:00:26;;;;;;;4.20;2.10;;;;;;;23.47;83.24;99211.53;105213;1271;62081;-72
2022/07/28 09:02:52;;;;;;;3.90;1.90;;;;;;;23.57;83.26;99201.52;105213;1271;62065;-72
2022/07/28 09:05:20;;;;;;;7.10;1.80;;;;;;;23.65;82.68;99200.91;105264;1271;62418;-71
2022/07/28 09:07:49;;;;;;;8.20;6.40;;;;;;;23.72;83.46;99198.63;105266;1271;62145;-72
2022/07/28 09:10:17;;;;;;;8.10;6.60;;;;;;;23.82;82.55;99198.95;105340;1271;77201;-71
2022/07/28 09:12:43;;;;;;;3.20;1.70;;;;;;;23.78;81.94;99199.73;105245;1271;70530;-72
2022/07/28 09:15:12;;;;;;;5.30;1.90;;;;;;;23.76;81.86;99200.12;105208;1271;61998;-70
2022/07/28 09:17:40;;;;;;;4.70;1.80;;;;;;;23.73;80.86;99199.02;105234;1269;62122;-71
2022/07/28 09:20:06;;;;;;;2.20;1.30;;;;;;;23.56;79.06;99198.67;105240;1271;62009;-71
2022/07/28 09:22:35;;;;;;;3.50;2.50;;;;;;;23.43;80.40;99193.63;105070;1271;75837;-73
2022/07/28 09:25:03;;;;;;;4.00;1.60;;;;;;;23.56;80.68;99196.37;105400;1271;69577;-71
2022/07/28 09:27:43;;;;;;;2.80;1.30;;;;;;;23.58;78.27;99194.44;105262;1268;73346;-71
2022/07/28 09:30:11;;;;;;;3.40;1.60;;;;;;;23.44;77.25;99199.17;105296;1271;63871;-71
2022/07/28 09:32:38;;;;;;;4.80;2.10;;;;;;;23.39;77.55;99192.33;105385;1270;62355;-71
2022/07/28 09:35:17;;;;;;;4.30;1.60;;;;;;;23.57;78.92;99192.83;105287;1271;77151;-71
2022/07/28 09:37:44;;;;;;;5.10;1.60;;;;;;;23.77;78.48;99191.66;105239;1271;68441;-71
2022/07/28 09:40:11;;;;;;;2.70;1.50;;;;;;;23.81;77.53;99199.23;105257;1270;74817;-71
2022/07/28 09:42:46;;;;;;;2.30;1.50;;;;;;;23.77;77.28;99196.95;105090;1271;62327;-72
2022/07/28 09:45:12;;;;;;;4.00;3.30;;;;;;;23.90;77.28;99195.58;103611;1271;2304098;-71
2022/07/28 09:47:39;;;;;;;4.30;1.70;;;;;;;24.01;75.84;99201.36;105282;1270;62170;-71
2022/07/28 09:50:06;;;;;;;3.80;1.50;;;;;;;23.99;76.02;99198.58;104943;1269;62078;-71
2022/07/28 09:52:37;;;;;;;3.00;1.90;;;;;;;24.03;76.15;99201.11;105010;1271;73725;-71
2022/07/28 09:55:08;;;;;;;3.90;1.80;;;;;;;24.03;74.35;99196.55;105328;1271;61976;-72
2022/07/28 09:57:36;;;;;;;4.40;2.50;;;;;;;23.94;73.57;99198.91;105065;1271;62012;-71
2022/07/28 10:00:10;;;;;;;4.50;2.10;;;;;;;24.00;73.45;99198.55;106623;1271;75084;-71
2022/07/28 10:02:37;;;;;;;2.90;1.50;;;;;;;24.10;72.55;99196.80;106711;1270;69297;-71
2022/07/28 10:05:04;;;;;;;5.50;1.60;;;;;;;24.18;73.11;99194.09;106485;1268;72036;-72
2022/07/28 10:07:33;;;;;;;3.50;2.30;;;;;;;24.31;72.69;99196.07;105275;1269;62069;-72
2022/07/28 10:10:04;;;;;;;3.70;1.70;;;;;;;24.38;72.24;99193.27;105113;1271;62088;-70
2022/07/28 10:12:32;;;;;;;3.60;1.30;;;;;;;24.47;72.38;99186.56;105352;1269;76286;-72
2022/07/28 10:17:56;;;;;;;3.10;1.50;;;;;;;24.53;66.88;99186.49;105085;1271;73618;-72
2022/07/28 10:20:22;;;;;;;5.40;3.20;;;;;;;24.53;66.04;99189.63;105290;1269;62098;-73
2022/07/28 10:22:53;;;;;;;3.00;1.50;;;;;;;24.55;65.52;99185.59;105244;1269;62160;-71
2022/07/28 10:25:21;;;;;;;3.60;1.40;;;;;;;24.40;63.77;99181.04;105292;1270;76478;-71
2022/07/28 10:27:48;;;;;;;5.90;3.60;;;;;;;24.31;64.16;99180.27;105350;1270;70654;-73
2022/07/28 10:30:14;;;;;;;3.00;1.70;;;;;;;24.41;63.98;99179.77;105279;1271;73551;-72
2022/07/28 10:32:43;;;;;;;3.90;2.80;;;;;;;24.53;64.08;99180.57;105249;1271;61967;-73
2022/07/28 10:35:14;;;;;;;3.80;2.10;;;;;;;24.66;64.30;99174.46;105349;1269;62157;-71
2022/07/28 10:37:47;;;;;;;2.70;1.40;;;;;;;24.77;63.44;99173.57;105075;1271;75165;-72
2022/07/28 10:40:15;;;;;;;11.00;3.10;;;;;;;24.79;63.84;99171.99;105252;1268;69524;-71
2022/07/28 10:42:41;;;;;;;3.40;2.00;;;;;;;24.90;64.26;99174.12;105228;1271;73509;-72
2022/07/28 10:45:12;;;;;;;10.70;7.90;;;;;;;25.08;64.30;99167.91;105090;1271;62219;-72
2022/07/28 10:47:38;;;;;;;3.30;1.50;;;;;;;25.19;63.97;99164.62;105285;1271;62078;-73
2022/07/28 10:50:05;;;;;;;2.50;1.50;;;;;;;25.26;62.35;99163.18;105298;1268;62170;-73
2022/07/28 10:52:35;;;;;;;5.10;1.70;;;;;;;25.36;62.45;99162.12;105510;1268;69049;-72
2022/07/28 10:55:34;;;;;;;3.10;1.60;;;;;;;25.50;61.79;99166.16;105466;1271;72678;-72
2022/07/28 10:58:13;;;;;;;4.80;2.10;;;;;;;25.57;60.93;99164.92;105247;1271;62724;-72
2022/07/28 11:00:51;;;;;;;2.30;1.60;;;;;;;25.75;60.46;99158.20;104992;1271;62267;-72
2022/07/28 11:03:38;;;;;;;3.30;1.90;;;;;;;25.95;59.39;99157.48;105241;1270;77219;-72
2022/07/28 11:06:44;;;;;;;3.20;1.70;;;;;;;26.09;59.08;99155.48;105054;1272;68385;-71
2022/07/28 11:09:16;;;;;;;7.50;4.10;;;;;;;26.23;59.53;99155.96;104525;1274;74564;-72
2022/07/28 11:11:49;;;;;;;3.20;1.70;;;;;;;26.40;60.41;99153.05;104824;1272;62126;-71
2022/07/28 11:14:21;;;;;;;3.70;1.40;;;;;;;26.67;60.67;99149.90;104852;1274;62094;-71
2022/07/28 11:17:02;;;;;;;3.30;1.80;;;;;;;26.86;59.61;99152.14;104876;1274;75651;-71
2022/07/28 11:19:30;;;;;;;8.50;3.80;;;;;;;26.92;58.09;99147.56;104868;1274;70334;-71
2022/07/28 11:22:20;;;;;;;3.90;2.10;;;;;;;26.89;53.92;99143.39;104897;1274;74566;-71
2022/07/28 11:24:57;;;;;;;5.70;2.40;;;;;;;26.96;54.15;99141.52;104485;1280;62190;-71
2022/07/28 11:27:42;;;;;;;2.80;1.90;;;;;;;27.03;54.51;99134.94;104317;1283;62149;-71
2022/07/28 11:30:10;;;;;;;5.30;1.90;;;;;;;27.20;54.48;99138.92;104384;1283;77072;-70
2022/07/28 11:33:04;;;;;;;3.90;1.70;;;;;;;27.24;54.60;99142.02;104426;1283;69512;-71
2022/07/28 11:35:51;;;;;;;3.70;1.60;;;;;;;27.40;54.35;99137.38;104273;1283;74457;-72
2022/07/28 11:38:18;;;;;;;4.20;1.60;;;;;;;27.35;52.04;99138.84;104241;1283;63655;-72